Angola, New York
Current Conditions -  °F | °C
As of 3:53 PM on Tuesday 21 Oct 2014 (Local Time) from KDKK Reporting Station
Overcast Overcast  
Wind Chill: 12°   Ceiling: 2800
Heat Index: 12°   Visibility: 10mi
Dew Point:   Wind: 8mph
Humidity: 83%   Direction: 300°WNW
Pressure: 29.9"   Gusts: NA
Location:  42.64°N, 79.03°W
Report Text: KDKK 211953Z AUTO 30007KT 10SM SCT017 BKN028 OVC036 12/09 A2990 RMK AO2 SLP126 T01170089
Loading
Personal Weather Stations






























Interactive Weather Map
Tropical Storm Tracking
New forecast layout! Learn more

10-Day Weather Forecast

Advertisements
Track Severe Weather on mobile